sensor_id;sensor_type;location;lat;lon;timestamp;pressure;altitude;pressure_sealevel;temperature;humidity
59116;BME280;53564;51.930;4.640;2022-11-15T00:02:04;100848.47;;;21.24;46.73
59116;BME280;53564;51.930;4.640;2022-11-15T00:04:29;100834.91;;;21.13;46.31
59116;BME280;53564;51.930;4.640;2022-11-15T00:06:55;100848.91;;;21.18;46.79
59116;BME280;53564;51.930;4.640;2022-11-15T00:09:21;100843.53;;;21.18;46.60
59116;BME280;53564;51.930;4.640;2022-11-15T00:11:46;100841.06;;;21.15;46.73
59116;BME280;53564;51.930;4.640;2022-11-15T00:14:12;100848.47;;;21.24;46.75
59116;BME280;53564;51.930;4.640;2022-11-15T00:16:37;100836.75;;;21.12;46.82
59116;BME280;53564;51.930;4.640;2022-11-15T00:19:02;100839.66;;;21.09;46.86
59116;BME280;53564;51.930;4.640;2022-11-15T00:21:28;100826.69;;;21.14;46.88
59116;BME280;53564;51.930;4.640;2022-11-15T00:23:53;100824.13;;;21.13;46.66
59116;BME280;53564;51.930;4.640;2022-11-15T00:26:18;100829.50;;;21.13;46.88
59116;BME280;53564;51.930;4.640;2022-11-15T00:28:43;100826.94;;;21.11;46.77
59116;BME280;53564;51.930;4.640;2022-11-15T00:31:12;100831.00;;;21.17;46.63
59116;BME280;53564;51.930;4.640;2022-11-15T00:33:38;100824.38;;;21.10;46.81
59116;BME280;53564;51.930;4.640;2022-11-15T00:36:06;100803.66;;;21.10;46.65
59116;BME280;53564;51.930;4.640;2022-11-15T00:38:35;100820.66;;;21.11;46.68
59116;BME280;53564;51.930;4.640;2022-11-15T00:41:01;100799.78;;;21.01;46.66
59116;BME280;53564;51.930;4.640;2022-11-15T00:43:27;100817.13;;;21.10;46.79
59116;BME280;53564;51.930;4.640;2022-11-15T00:45:53;100815.28;;;21.11;46.68
59116;BME280;53564;51.930;4.640;2022-11-15T00:48:18;100802.81;;;21.10;46.73
59116;BME280;53564;51.930;4.640;2022-11-15T00:50:43;100806.13;;;21.13;46.33
59116;BME280;53564;51.930;4.640;2022-11-15T00:53:09;100795.38;;;21.00;46.91
59116;BME280;53564;51.930;4.640;2022-11-15T00:55:34;100812.94;;;21.06;46.95
59116;BME280;53564;51.930;4.640;2022-11-15T00:57:59;100797.94;;;21.02;46.96
59116;BME280;53564;51.930;4.640;2022-11-15T01:00:25;100809.03;;;21.10;46.55
59116;BME280;53564;51.930;4.640;2022-11-15T01:02:50;100810.34;;;21.04;47.07
59116;BME280;53564;51.930;4.640;2022-11-15T01:05:15;100804.41;;;21.12;46.71
59116;BME280;53564;51.930;4.640;2022-11-15T01:07:41;100806.00;;;21.15;46.75
59116;BME280;53564;51.930;4.640;2022-11-15T01:10:06;100791.13;;;21.09;46.77
59116;BME280;53564;51.930;4.640;2022-11-15T01:12:32;100791.19;;;20.96;47.25
59116;BME280;53564;51.930;4.640;2022-11-15T01:14:57;100798.44;;;21.20;47.30
59116;BME280;53564;51.930;4.640;2022-11-15T01:17:23;100793.06;;;21.20;47.19
59116;BME280;53564;51.930;4.640;2022-11-15T01:19:48;100792.97;;;21.09;47.15
59116;BME280;53564;51.930;4.640;2022-11-15T01:22:13;100778.47;;;20.98;47.06
59116;BME280;53564;51.930;4.640;2022-11-15T01:24:39;100781.88;;;21.00;47.34
59116;BME280;53564;51.930;4.640;2022-11-15T01:27:04;100784.91;;;21.09;47.00
59116;BME280;53564;51.930;4.640;2022-11-15T01:29:29;100786.63;;;21.10;47.06
59116;BME280;53564;51.930;4.640;2022-11-15T01:31:54;100788.31;;;21.11;46.95
59116;BME280;53564;51.930;4.640;2022-11-15T01:34:20;100776.06;;;21.07;47.18
59116;BME280;53564;51.930;4.640;2022-11-15T01:36:45;100777.97;;;21.04;46.63
59116;BME280;53564;51.930;4.640;2022-11-15T01:39:10;100779.63;;;21.07;46.99
59116;BME280;53564;51.930;4.640;2022-11-15T01:41:36;100765.25;;;21.07;46.95
59116;BME280;53564;51.930;4.640;2022-11-15T01:47:15;100766.75;;;21.11;46.92
59116;BME280;53564;51.930;4.640;2022-11-15T01:49:50;100767.13;;;20.93;47.71
59116;BME280;53564;51.930;4.640;2022-11-15T01:52:19;100756.28;;;21.19;47.37
59116;BME280;53564;51.930;4.640;2022-11-15T01:54:48;100750.13;;;21.17;47.21
59116;BME280;53564;51.930;4.640;2022-11-15T01:57:15;100754.91;;;21.13;47.23
59116;BME280;53564;51.930;4.640;2022-11-15T01:59:43;100758.56;;;21.12;47.21
59116;BME280;53564;51.930;4.640;2022-11-15T02:02:09;100759.66;;;21.10;47.51
59116;BME280;53564;51.930;4.640;2022-11-15T02:04:41;100747.16;;;21.09;47.23
59116;BME280;53564;51.930;4.640;2022-11-15T02:07:08;100741.97;;;21.06;47.40
59116;BME280;53564;51.930;4.640;2022-11-15T02:09:36;100745.44;;;21.08;47.12
59116;BME280;53564;51.930;4.640;2022-11-15T02:12:02;100734.78;;;21.06;47.15
59116;BME280;53564;51.930;4.640;2022-11-15T02:14:28;100738.09;;;21.10;47.05
59116;BME280;53564;51.930;4.640;2022-11-15T02:17:01;100728.63;;;21.04;47.34
59116;BME280;53564;51.930;4.640;2022-11-15T02:30:25;100714.38;;;21.02;47.21
59116;BME280;53564;51.930;4.640;2022-11-15T02:32:59;100708.38;;;20.98;47.39
59116;BME280;53564;51.930;4.640;2022-11-15T02:35:43;100712.78;;;20.99;47.48
59116;BME280;53564;51.930;4.640;2022-11-15T02:38:27;100705.56;;;21.00;47.26
59116;BME280;53564;51.930;4.640;2022-11-15T02:41:04;100710.97;;;21.00;47.15
59116;BME280;53564;51.930;4.640;2022-11-15T02:43:54;100695.88;;;20.97;47.31
59116;BME280;53564;51.930;4.640;2022-11-15T02:46:35;100695.00;;;20.97;47.11
59116;BME280;53564;51.930;4.640;2022-11-15T02:49:21;100703.84;;;20.99;47.29
59116;BME280;53564;51.930;4.640;2022-11-15T02:51:49;100690.25;;;21.00;47.14
59116;BME280;53564;51.930;4.640;2022-11-15T02:54:20;100712.91;;;20.98;47.16
59116;BME280;53564;51.930;4.640;2022-11-15T02:56:47;100693.28;;;20.96;47.30
59116;BME280;53564;51.930;4.640;2022-11-15T03:02:28;100691.13;;;21.01;47.31
59116;BME280;53564;51.930;4.640;2022-11-15T03:05:08;100697.47;;;21.00;47.47
59116;BME280;53564;51.930;4.640;2022-11-15T03:07:53;100699.09;;;21.02;47.04
59116;BME280;53564;51.930;4.640;2022-11-15T03:10:28;100686.19;;;20.95;47.62
59116;BME280;53564;51.930;4.640;2022-11-15T03:13:16;100686.81;;;20.98;47.41
59116;BME280;53564;51.930;4.640;2022-11-15T03:18:38;100681.53;;;20.97;47.39
59116;BME280;53564;51.930;4.640;2022-11-15T03:21:08;100686.19;;;20.95;47.57
59116;BME280;53564;51.930;4.640;2022-11-15T03:23:36;100683.59;;;20.93;47.53
59116;BME280;53564;51.930;4.640;2022-11-15T03:26:06;100694.38;;;20.93;47.95
59116;BME280;53564;51.930;4.640;2022-11-15T03:28:42;100692.44;;;20.95;47.97
59116;BME280;53564;51.930;4.640;2022-11-15T03:31:11;100695.88;;;20.97;47.71
59116;BME280;53564;51.930;4.640;2022-11-15T03:33:58;100682.09;;;20.89;47.62
59116;BME280;53564;51.930;4.640;2022-11-15T03:36:27;100693.81;;;21.01;47.57
59116;BME280;53564;51.930;4.640;2022-11-15T03:38:56;100682.09;;;20.89;47.94
59116;BME280;53564;51.930;4.640;2022-11-15T03:41:48;100699.53;;;20.96;47.60
59116;BME280;53564;51.930;4.640;2022-11-15T03:49:29;100690.69;;;20.94;47.90
59116;BME280;53564;51.930;4.640;2022-11-15T03:51:58;100684.47;;;20.94;47.82
59116;BME280;53564;51.930;4.640;2022-11-15T03:54:24;100686.41;;;20.92;47.67
59116;BME280;53564;51.930;4.640;2022-11-15T03:56:49;100683.50;;;20.95;48.07
59116;BME280;53564;51.930;4.640;2022-11-15T03:59:14;100690.56;;;20.96;47.70
59116;BME280;53564;51.930;4.640;2022-11-15T04:01:40;100683.38;;;20.96;47.66
59116;BME280;53564;51.930;4.640;2022-11-15T04:04:05;100665.25;;;20.98;47.69
59116;BME280;53564;51.930;4.640;2022-11-15T04:06:30;100671.16;;;21.03;47.64
59116;BME280;53564;51.930;4.640;2022-11-15T04:08:55;100667.19;;;20.96;47.63
59116;BME280;53564;51.930;4.640;2022-11-15T04:11:21;100663.75;;;20.94;47.89
59116;BME280;53564;51.930;4.640;2022-11-15T04:13:46;100665.34;;;20.97;47.92
59116;BME280;53564;51.930;4.640;2022-11-15T04:16:11;100656.41;;;20.96;47.77
59116;BME280;53564;51.930;4.640;2022-11-15T04:18:37;100656.41;;;20.96;48.17
59116;BME280;53564;51.930;4.640;2022-11-15T04:21:02;100667.72;;;21.01;47.84
59116;BME280;53564;51.930;4.640;2022-11-15T04:23:46;100654.31;;;20.89;47.88
59116;BME280;53564;51.930;4.640;2022-11-15T04:26:30;100655.66;;;20.94;47.93
59116;BME280;53564;51.930;4.640;2022-11-15T04:28:55;100656.63;;;20.93;48.04
59116;BME280;53564;51.930;4.640;2022-11-15T04:31:39;100664.38;;;20.98;47.97
59116;BME280;53564;51.930;4.640;2022-11-15T04:34:04;100671.97;;;20.93;47.88
59116;BME280;53564;51.930;4.640;2022-11-15T04:36:29;100664.00;;;20.91;48.00
59116;BME280;53564;51.930;4.640;2022-11-15T04:39:13;100668.97;;;20.84;47.96
59116;BME280;53564;51.930;4.640;2022-11-15T04:41:38;100678.66;;;20.87;48.29
59116;BME280;53564;51.930;4.640;2022-11-15T04:44:04;100687.72;;;20.86;48.03
59116;BME280;53564;51.930;4.640;2022-11-15T04:46:29;100672.53;;;20.85;48.05
59116;BME280;53564;51.930;4.640;2022-11-15T04:48:54;100673.06;;;20.90;47.88
59116;BME280;53564;51.930;4.640;2022-11-15T04:51:20;100676.97;;;20.86;47.97
59116;BME280;53564;51.930;4.640;2022-11-15T04:53:45;100682.22;;;20.87;48.06
59116;BME280;53564;51.930;4.640;2022-11-15T04:56:11;100677.97;;;20.96;47.74
59116;BME280;53564;51.930;4.640;2022-11-15T04:58:36;100673.34;;;20.98;47.84
59116;BME280;53564;51.930;4.640;2022-11-15T05:01:13;100694.66;;;21.01;47.62
59116;BME280;53564;51.930;4.640;2022-11-15T05:03:42;100691.34;;;20.98;47.94
59116;BME280;53564;51.930;4.640;2022-11-15T05:06:26;100693.00;;;21.12;47.79
59116;BME280;53564;51.930;4.640;2022-11-15T05:08:51;100686.28;;;21.17;47.69
59116;BME280;53564;51.930;4.640;2022-11-15T05:11:17;100679.00;;;21.07;47.57
59116;BME280;53564;51.930;4.640;2022-11-15T05:13:42;100695.69;;;21.12;48.01
59116;BME280;53564;51.930;4.640;2022-11-15T05:16:08;100696.78;;;21.09;48.02
59116;BME280;53564;51.930;4.640;2022-11-15T05:18:33;100691.50;;;21.08;48.00
59116;BME280;53564;51.930;4.640;2022-11-15T05:21:14;100695.19;;;21.07;48.20
59116;BME280;53564;51.930;4.640;2022-11-15T05:23:40;100692.34;;;21.08;48.10
59116;BME280;53564;51.930;4.640;2022-11-15T05:26:06;100692.72;;;21.03;47.99
59116;BME280;53564;51.930;4.640;2022-11-15T05:28:33;100677.75;;;20.99;48.11
59116;BME280;53564;51.930;4.640;2022-11-15T05:31:07;100683.03;;;21.01;48.08
59116;BME280;53564;51.930;4.640;2022-11-15T05:33:34;100678.16;;;21.06;47.78
59116;BME280;53564;51.930;4.640;2022-11-15T05:36:04;100673.63;;;21.07;47.96
59116;BME280;53564;51.930;4.640;2022-11-15T05:38:31;100684.06;;;21.11;47.88
59116;BME280;53564;51.930;4.640;2022-11-15T05:40:56;100677.06;;;21.09;48.00
59116;BME280;53564;51.930;4.640;2022-11-15T05:43:22;100678.53;;;21.13;47.76
59116;BME280;53564;51.930;4.640;2022-11-15T05:45:48;100682.22;;;21.12;47.99
59116;BME280;53564;51.930;4.640;2022-11-15T05:48:13;100684.91;;;21.12;47.74
59116;BME280;53564;51.930;4.640;2022-11-15T05:50:42;100679.63;;;21.10;47.66
59116;BME280;53564;51.930;4.640;2022-11-15T05:53:10;100689.78;;;21.07;47.84
59116;BME280;53564;51.930;4.640;2022-11-15T05:55:39;100692.03;;;21.13;47.66
59116;BME280;53564;51.930;4.640;2022-11-15T05:58:04;100683.94;;;21.13;47.63
59116;BME280;53564;51.930;4.640;2022-11-15T06:00:30;100678.03;;;21.08;47.60
59116;BME280;53564;51.930;4.640;2022-11-15T06:02:55;100687.84;;;21.09;47.87
59116;BME280;53564;51.930;4.640;2022-11-15T06:05:20;100690.28;;;21.12;47.48
59116;BME280;53564;51.930;4.640;2022-11-15T06:07:46;100696.19;;;21.17;47.48
59116;BME280;53564;51.930;4.640;2022-11-15T06:10:11;100691.06;;;21.14;47.88
59116;BME280;53564;51.930;4.640;2022-11-15T06:12:37;100707.69;;;21.08;47.44
59116;BME280;53564;51.930;4.640;2022-11-15T06:15:02;100713.94;;;21.08;47.79
59116;BME280;53564;51.930;4.640;2022-11-15T06:17:28;100708.91;;;21.03;47.71
59116;BME280;53564;51.930;4.640;2022-11-15T06:19:54;100711.34;;;21.07;47.38
59116;BME280;53564;51.930;4.640;2022-11-15T06:22:19;100713.59;;;21.13;47.63
59116;BME280;53564;51.930;4.640;2022-11-15T06:24:44;100717.38;;;21.10;47.82
59116;BME280;53564;51.930;4.640;2022-11-15T06:27:10;100708.66;;;21.07;47.51
59116;BME280;53564;51.930;4.640;2022-11-15T06:29:36;100731.94;;;21.08;47.56
59116;BME280;53564;51.930;4.640;2022-11-15T06:32:01;100720.19;;;21.09;47.83
59116;BME280;53564;51.930;4.640;2022-11-15T06:34:26;100727.06;;;21.13;47.80
59116;BME280;53564;51.930;4.640;2022-11-15T06:36:52;100715.03;;;21.06;47.40
59116;BME280;53564;51.930;4.640;2022-11-15T06:39:17;100709.53;;;21.07;47.57
59116;BME280;53564;51.930;4.640;2022-11-15T06:41:42;100719.63;;;20.92;48.24
59116;BME280;53564;51.930;4.640;2022-11-15T06:44:07;100700.06;;;20.77;48.38
59116;BME280;53564;51.930;4.640;2022-11-15T06:46:33;100727.88;;;20.52;49.74
59116;BME280;53564;51.930;4.640;2022-11-15T06:48:58;100712.28;;;21.18;61.41
59116;BME280;53564;51.930;4.640;2022-11-15T06:51:23;100727.63;;;22.00;68.79
59116;BME280;53564;51.930;4.640;2022-11-15T06:53:48;100737.72;;;22.10;67.27
59116;BME280;53564;51.930;4.640;2022-11-15T06:56:15;100730.09;;;21.92;64.20
59116;BME280;53564;51.930;4.640;2022-11-15T06:58:40;100735.50;;;21.92;62.35
59116;BME280;53564;51.930;4.640;2022-11-15T07:01:09;100741.59;;;21.83;61.33
59116;BME280;53564;51.930;4.640;2022-11-15T07:03:36;100741.84;;;21.80;59.34
59116;BME280;53564;51.930;4.640;2022-11-15T07:06:01;100732.75;;;21.70;58.33
59116;BME280;53564;51.930;4.640;2022-11-15T07:08:28;100731.72;;;21.71;59.37
59116;BME280;53564;51.930;4.640;2022-11-15T07:10:53;100736.13;;;21.60;57.81
59116;BME280;53564;51.930;4.640;2022-11-15T07:13:19;100728.22;;;21.46;55.82
59116;BME280;53564;51.930;4.640;2022-11-15T07:15:44;100727.97;;;21.49;55.42
59116;BME280;53564;51.930;4.640;2022-11-15T07:18:11;100728.44;;;21.43;54.95
59116;BME280;53564;51.930;4.640;2022-11-15T07:20:36;100727.16;;;21.35;55.72
59116;BME280;53564;51.930;4.640;2022-11-15T07:23:03;100740.03;;;21.32;58.41
59116;BME280;53564;51.930;4.640;2022-11-15T07:25:29;100743.09;;;21.27;59.84
59116;BME280;53564;51.930;4.640;2022-11-15T07:27:55;100741.50;;;21.84;65.88
59116;BME280;53564;51.930;4.640;2022-11-15T07:30:21;100730.16;;;22.38;70.11
59116;BME280;53564;51.930;4.640;2022-11-15T07:32:46;100727.78;;;22.78;71.96
59116;BME280;53564;51.930;4.640;2022-11-15T07:35:11;100738.38;;;23.25;72.83
59116;BME280;53564;51.930;4.640;2022-11-15T07:37:37;100727.00;;;23.43;71.84
59116;BME280;53564;51.930;4.640;2022-11-15T07:40:02;100728.16;;;23.29;69.44
59116;BME280;53564;51.930;4.640;2022-11-15T07:42:31;100725.50;;;23.06;68.56
59116;BME280;53564;51.930;4.640;2022-11-15T07:45:15;100731.09;;;22.71;66.50
59116;BME280;53564;51.930;4.640;2022-11-15T07:47:40;100724.34;;;22.76;66.07
59116;BME280;53564;51.930;4.640;2022-11-15T07:50:05;100727.91;;;22.77;66.22
59116;BME280;53564;51.930;4.640;2022-11-15T07:52:31;100724.97;;;22.80;65.46
59116;BME280;53564;51.930;4.640;2022-11-15T07:54:56;100724.47;;;22.86;65.12
59116;BME280;53564;51.930;4.640;2022-11-15T07:57:21;100724.94;;;22.91;64.09
59116;BME280;53564;51.930;4.640;2022-11-15T07:59:46;100714.84;;;22.93;63.68
59116;BME280;53564;51.930;4.640;2022-11-15T08:02:12;100713.13;;;22.92;63.55
59116;BME280;53564;51.930;4.640;2022-11-15T08:04:37;100713.59;;;22.97;62.98
59116;BME280;53564;51.930;4.640;2022-11-15T08:07:02;100700.84;;;23.00;62.26
59116;BME280;53564;51.930;4.640;2022-11-15T08:09:27;100704.03;;;22.93;62.38
59116;BME280;53564;51.930;4.640;2022-11-15T08:11:53;100705.75;;;22.94;61.83
59116;BME280;53564;51.930;4.640;2022-11-15T08:14:18;100698.88;;;22.90;61.98
59116;BME280;53564;51.930;4.640;2022-11-15T08:16:43;100695.69;;;22.85;61.65
59116;BME280;53564;51.930;4.640;2022-11-15T08:19:08;100693.63;;;22.77;60.15
59116;BME280;53564;51.930;4.640;2022-11-15T08:21:34;100689.34;;;22.75;58.96
59116;BME280;53564;51.930;4.640;2022-11-15T08:24:00;100693.88;;;22.74;58.71
59116;BME280;53564;51.930;4.640;2022-11-15T08:26:26;100695.25;;;22.69;57.77
59116;BME280;53564;51.930;4.640;2022-11-15T08:28:54;100694.38;;;22.68;56.25
59116;BME280;53564;51.930;4.640;2022-11-15T08:31:19;100691.81;;;22.67;55.92
59116;BME280;53564;51.930;4.640;2022-11-15T08:33:45;100694.78;;;22.63;55.50
59116;BME280;53564;51.930;4.640;2022-11-15T08:36:15;100698.47;;;22.62;54.77
59116;BME280;53564;51.930;4.640;2022-11-15T08:38:41;100678.09;;;22.58;54.18
59116;BME280;53564;51.930;4.640;2022-11-15T08:41:06;100686.41;;;22.55;54.31
59116;BME280;53564;51.930;4.640;2022-11-15T08:43:32;100680.28;;;22.53;53.90
59116;BME280;53564;51.930;4.640;2022-11-15T08:45:59;100669.47;;;22.53;53.48
59116;BME280;53564;51.930;4.640;2022-11-15T08:48:24;100677.56;;;22.53;53.43
59116;BME280;53564;51.930;4.640;2022-11-15T08:50:56;100676.84;;;22.51;53.57
59116;BME280;53564;51.930;4.640;2022-11-15T08:53:22;100668.28;;;22.46;52.43
59116;BME280;53564;51.930;4.640;2022-11-15T08:55:47;100662.25;;;22.42;52.61
59116;BME280;53564;51.930;4.640;2022-11-15T08:58:13;100655.25;;;22.40;52.38
59116;BME280;53564;51.930;4.640;2022-11-15T09:00:38;100669.47;;;22.42;52.25
59116;BME280;53564;51.930;4.640;2022-11-15T09:03:04;100666.16;;;22.38;52.04
59116;BME280;53564;51.930;4.640;2022-11-15T09:05:30;100669.22;;;22.33;51.49
59116;BME280;53564;51.930;4.640;2022-11-15T09:07:56;100677.22;;;22.35;51.66
59116;BME280;53564;51.930;4.640;2022-11-15T09:10:22;100668.50;;;22.31;51.51
59116;BME280;53564;51.930;4.640;2022-11-15T09:12:47;100669.47;;;22.30;50.97
59116;BME280;53564;51.930;4.640;2022-11-15T09:15:14;100671.44;;;22.28;50.37
59116;BME280;53564;51.930;4.640;2022-11-15T09:17:40;100665.44;;;22.25;50.24
59116;BME280;53564;51.930;4.640;2022-11-15T09:20:06;100669.97;;;22.24;50.84
59116;BME280;53564;51.930;4.640;2022-11-15T09:22:31;100664.81;;;22.21;50.36
59116;BME280;53564;51.930;4.640;2022-11-15T09:24:57;100662.84;;;22.23;50.06
59116;BME280;53564;51.930;4.640;2022-11-15T09:27:22;100665.94;;;22.19;49.60
59116;BME280;53564;51.930;4.640;2022-11-15T09:29:47;100665.03;;;22.18;50.10
59116;BME280;53564;51.930;4.640;2022-11-15T09:32:12;100668.97;;;22.14;49.67
59116;BME280;53564;51.930;4.640;2022-11-15T09:34:38;100662.00;;;22.11;49.85
59116;BME280;53564;51.930;4.640;2022-11-15T09:37:03;100659.28;;;22.11;49.76
59116;BME280;53564;51.930;4.640;2022-11-15T09:39:28;100663.84;;;22.11;49.53
59116;BME280;53564;51.930;4.640;2022-11-15T09:49:58;100650.09;;;22.03;49.30
59116;BME280;53564;51.930;4.640;2022-11-15T09:52:24;100655.22;;;22.06;49.32
59116;BME280;53564;51.930;4.640;2022-11-15T09:54:51;100649.34;;;22.00;48.50
59116;BME280;53564;51.930;4.640;2022-11-15T09:57:24;100649.13;;;22.04;48.49
59116;BME280;53564;51.930;4.640;2022-11-15T10:00:02;100643.44;;;21.95;48.48
59116;BME280;53564;51.930;4.640;2022-11-15T10:05:04;100632.91;;;21.92;47.85
59116;BME280;53564;51.930;4.640;2022-11-15T10:07:59;100643.44;;;21.95;48.09
59116;BME280;53564;51.930;4.640;2022-11-15T10:10:29;100628.22;;;21.94;48.06
59116;BME280;53564;51.930;4.640;2022-11-15T10:12:58;100618.94;;;21.87;48.23
59116;BME280;53564;51.930;4.640;2022-11-15T10:15:24;100615.22;;;21.88;48.15
59116;BME280;53564;51.930;4.640;2022-11-15T10:18:13;100640.03;;;21.93;48.54
59116;BME280;53564;51.930;4.640;2022-11-15T10:20:52;100625.78;;;21.91;48.04
59116;BME280;53564;51.930;4.640;2022-11-15T10:23:20;100625.53;;;21.94;48.21
59116;BME280;53564;51.930;4.640;2022-11-15T10:25:47;100626.53;;;21.93;47.97
59116;BME280;53564;51.930;4.640;2022-11-15T10:28:20;100614.25;;;21.89;47.98
59116;BME280;53564;51.930;4.640;2022-11-15T10:30:49;100605.31;;;21.89;47.96
59116;BME280;53564;51.930;4.640;2022-11-15T10:36:19;100600.75;;;21.89;47.85
59116;BME280;53564;51.930;4.640;2022-11-15T10:41:15;100570.56;;;21.84;47.46
59116;BME280;53564;51.930;4.640;2022-11-15T10:43:40;100577.84;;;21.83;47.31
59116;BME280;53564;51.930;4.640;2022-11-15T10:46:20;100570.84;;;21.81;47.31
59116;BME280;53564;51.930;4.640;2022-11-15T10:48:46;100576.84;;;21.84;47.30
59116;BME280;53564;51.930;4.640;2022-11-15T10:51:23;100579.66;;;21.83;47.24
59116;BME280;53564;51.930;4.640;2022-11-15T10:53:54;100574.16;;;21.84;47.19
59116;BME280;53564;51.930;4.640;2022-11-15T10:56:22;100570.84;;;21.81;46.84
59116;BME280;53564;51.930;4.640;2022-11-15T10:58:55;100567.25;;;21.80;47.01
59116;BME280;53564;51.930;4.640;2022-11-15T11:01:26;100577.69;;;21.85;46.85
59116;BME280;53564;51.930;4.640;2022-11-15T11:04:03;100563.47;;;21.83;46.49
59116;BME280;53564;51.930;4.640;2022-11-15T11:06:29;100562.00;;;21.79;47.01
59116;BME280;53564;51.930;4.640;2022-11-15T11:08:58;100560.88;;;21.81;46.79
59116;BME280;53564;51.930;4.640;2022-11-15T11:11:24;100549.47;;;21.78;46.89
59116;BME280;53564;51.930;4.640;2022-11-15T11:13:50;100537.22;;;21.74;46.81
59116;BME280;53564;51.930;4.640;2022-11-15T11:16:36;100541.03;;;21.82;46.70
59116;BME280;53564;51.930;4.640;2022-11-15T11:19:18;100543.84;;;21.81;46.56
59116;BME280;53564;51.930;4.640;2022-11-15T11:22:05;100532.19;;;21.80;46.41
59116;BME280;53564;51.930;4.640;2022-11-15T11:27:23;100509.97;;;21.77;47.20
59116;BME280;53564;51.930;4.640;2022-11-15T11:35:24;100508.25;;;21.76;47.42
59116;BME280;53564;51.930;4.640;2022-11-15T11:41:00;100503.47;;;21.79;46.95
59116;BME280;53564;51.930;4.640;2022-11-15T11:46:36;100496.97;;;21.82;46.71
59116;BME280;53564;51.930;4.640;2022-11-15T11:49:15;100479.59;;;21.75;47.18
59116;BME280;53564;51.930;4.640;2022-11-15T11:51:53;100478.81;;;21.84;46.87
59116;BME280;53564;51.930;4.640;2022-11-15T11:54:23;100474.50;;;21.93;47.08
59116;BME280;53564;51.930;4.640;2022-11-15T11:56:52;100460.41;;;21.89;47.45
59116;BME280;53564;51.930;4.640;2022-11-15T11:59:37;100468.75;;;21.97;47.10
59116;BME280;53564;51.930;4.640;2022-11-15T12:02:14;100459.06;;;21.95;47.59
59116;BME280;53564;51.930;4.640;2022-11-15T12:04:45;100452.78;;;21.94;47.06
59116;BME280;53564;51.930;4.640;2022-11-15T12:07:24;100463.06;;;22.00;47.05
59116;BME280;53564;51.930;4.640;2022-11-15T12:09:58;100433.66;;;21.97;47.27
59116;BME280;53564;51.930;4.640;2022-11-15T12:12:32;100444.66;;;22.06;47.06
59116;BME280;53564;51.930;4.640;2022-11-15T12:17:29;100420.84;;;22.11;46.54
59116;BME280;53564;51.930;4.640;2022-11-15T12:20:05;100416.38;;;22.21;46.61
59116;BME280;53564;51.930;4.640;2022-11-15T12:22:43;100416.38;;;22.21;46.67
59116;BME280;53564;51.930;4.640;2022-11-15T12:28:06;100412.88;;;22.30;46.05
59116;BME280;53564;51.930;4.640;2022-11-15T12:30:52;100410.78;;;22.34;45.72
59116;BME280;53564;51.930;4.640;2022-11-15T12:33:40;100407.94;;;22.36;45.90
59116;BME280;53564;51.930;4.640;2022-11-15T12:38:58;100404.25;;;22.37;45.72
59116;BME280;53564;51.930;4.640;2022-11-15T12:41:32;100390.31;;;22.31;45.75
59116;BME280;53564;51.930;4.640;2022-11-15T12:43:58;100391.66;;;22.37;45.30
59116;BME280;53564;51.930;4.640;2022-11-15T13:00:00;100358.41;;;22.25;46.05
59116;BME280;53564;51.930;4.640;2022-11-15T13:02:36;100368.75;;;22.20;46.00
59116;BME280;53564;51.930;4.640;2022-11-15T13:17:47;100342.56;;;21.99;45.48
59116;BME280;53564;51.930;4.640;2022-11-15T13:23:23;100331.78;;;21.99;45.77
59116;BME280;53564;51.930;4.640;2022-11-15T13:25:52;100322.97;;;21.97;45.36
59116;BME280;53564;51.930;4.640;2022-11-15T13:28:51;100321.41;;;21.95;45.57
59116;BME280;53564;51.930;4.640;2022-11-15T13:31:34;100318.34;;;21.88;45.81
59116;BME280;53564;51.930;4.640;2022-11-15T13:36:46;100298.31;;;21.70;46.63
59116;BME280;53564;51.930;4.640;2022-11-15T13:39:27;100296.34;;;21.72;46.55
59116;BME280;53564;51.930;4.640;2022-11-15T13:41:53;100290.22;;;21.70;46.96
59116;BME280;53564;51.930;4.640;2022-11-15T13:44:24;100293.16;;;21.66;47.04
59116;BME280;53564;51.930;4.640;2022-11-15T13:47:04;100284.44;;;21.74;46.72
59116;BME280;53564;51.930;4.640;2022-11-15T13:49:31;100276.75;;;21.70;46.66
59116;BME280;53564;51.930;4.640;2022-11-15T13:51:57;100280.88;;;21.74;46.56
59116;BME280;53564;51.930;4.640;2022-11-15T13:57:12;100262.66;;;21.66;45.64
59116;BME280;53564;51.930;4.640;2022-11-15T13:59:51;100255.91;;;21.60;45.90
59116;BME280;53564;51.930;4.640;2022-11-15T14:02:20;100250.28;;;21.63;45.50
59116;BME280;53564;51.930;4.640;2022-11-15T14:04:50;100254.19;;;21.59;45.65
59116;BME280;53564;51.930;4.640;2022-11-15T14:07:18;100241.19;;;21.64;45.26
59116;BME280;53564;51.930;4.640;2022-11-15T14:09:45;100232.38;;;21.62;44.97
59116;BME280;53564;51.930;4.640;2022-11-15T14:12:34;100230.78;;;21.60;45.46
59116;BME280;53564;51.930;4.640;2022-11-15T14:15:17;100222.94;;;21.57;45.57
59116;BME280;53564;51.930;4.640;2022-11-15T14:17:43;100220.34;;;21.55;45.02
59116;BME280;53564;51.930;4.640;2022-11-15T14:20:33;100215.84;;;21.56;45.24
59116;BME280;53564;51.930;4.640;2022-11-15T14:23:18;100206.25;;;21.84;44.55
59116;BME280;53564;51.930;4.640;2022-11-15T14:25:56;100207.94;;;22.06;43.91
59116;BME280;53564;51.930;4.640;2022-11-15T14:30:47;100198.03;;;21.53;45.91
59116;BME280;53564;51.930;4.640;2022-11-15T14:35:44;100195.84;;;21.47;46.08
59116;BME280;53564;51.930;4.640;2022-11-15T14:38:10;100189.03;;;21.43;46.01
59116;BME280;53564;51.930;4.640;2022-11-15T14:40:35;100188.22;;;21.52;45.68
59116;BME280;53564;51.930;4.640;2022-11-15T14:43:00;100187.53;;;21.50;45.39
59116;BME280;53564;51.930;4.640;2022-11-15T14:45:26;100169.91;;;21.46;45.49